Latest Weather Observations for Melbourne

IDV60801

Issued at 11:32 am EDT Monday 22 December 2014 (issued every 30 minutes, with the page automatically refreshed every 10 minutes)

About weather observations | Map of weather stations | Latest weather observations for VIC | Other Formats
Station Details ID: 086071 Name: MELBOURNE REGIONAL OFFICE Lat: -37.81 Lon: 144.97 Height: 31.15 m
Data from the previous 72 hours. | See also: Recent months at Melbourne

* Apparent temperature (App Temp) for Melbourne is calculated using temperature observations collected at Melbourne and wind observations collected at Melbourne (Olympic Park), as wind observations are not currently provided for Melbourne.

Date/Time
EDT
Temp
°C
App
Temp
°C
Dew
Point
Rel
Hum
%
Delta-T
°C
Wind Press
QNH
hPa
Press
MSL
hPa
Rain
since 9 am
mm
Dir
 
Spd
km/h
Gust
km/h
Spd
kts
Gust
kts
22/11:30am 23.3 22.8 15.9 63 4.5 SW 13 - 7 - 1012.2 - 0.0
22/11:00am 22.6 22.1 15.0 62 4.5 SSW 11 - 6 - 1012.4 - 0.0
22/10:30am 22.3 21.4 14.9 63 4.4 S 13 - 7 - 1012.7 - 0.0
22/10:00am 21.7 21.1 14.7 64 4.1 SSW 11 - 6 - 1012.8 - 0.0
22/09:30am 21.6 22.7 14.6 64 4.1 E 2 - 1 - 1013.0 - 0.0
22/09:00am 19.9 20.7 14.8 72 3.0 N 4 - 2 - 1013.1 1013.0 0.0
22/08:30am 19.3 20.8 14.7 74 2.7 CALM 0 - 0 - 1013.0 - 0.0
22/08:00am 18.7 19.4 14.6 77 2.4 S 4 - 2 - 1013.1 - 0.0
22/07:30am 18.6 18.9 14.6 77 2.3 E 6 - 3 - 1013.1 - 0.0
22/07:00am 18.4 18.7 14.4 77 2.3 ESE 6 - 3 - 1012.8 - 0.0
22/06:30am 18.1 19.7 14.8 81 1.9 CALM 0 - 0 - 1012.8 - 0.0
22/06:00am 18.0 19.6 14.9 82 1.8 CALM 0 - 0 - 1012.5 1012.5 0.0
22/05:30am 18.0 19.5 14.7 81 1.9 CALM 0 - 0 - 1012.5 - 0.0
22/05:00am 17.9 19.5 14.8 82 1.8 CALM 0 - 0 - 1012.4 - 0.0
22/04:30am 18.7 20.3 14.9 78 2.2 CALM 0 - 0 - 1012.5 - 0.0
22/04:00am 18.5 19.9 14.5 77 2.3 CALM 0 - 0 - 1012.5 - 0.0
22/03:30am 18.8 20.2 14.5 76 2.5 CALM 0 - 0 - 1012.7 - 0.0
22/03:00am 18.8 20.4 14.9 78 2.3 CALM 0 - 0 - 1012.8 1012.7 0.0
22/02:30am 18.9 19.8 15.0 78 2.3 SSW 4 - 2 - 1013.1 - 0.0
22/02:00am 19.0 19.7 15.6 80 2.0 SSW 6 - 3 - 1013.2 - 0.0
22/01:30am 19.0 19.8 15.8 82 1.9 SW 6 - 3 - 1013.6 - 0.0
22/01:00am 19.4 20.0 15.9 80 2.1 SSW 7 - 4 - 1014.1 - 0.0
22/12:30am 20.0 20.1 15.6 76 2.6 SW 9 - 5 - 1014.1 - 0.0
22/12:00am 20.2 20.9 16.0 77 2.5 SW 7 - 4 - 1014.2 1014.1 0.0
 
Date/Time
EDT
Temp
°C
App
Temp
°C
Dew
Point
Rel
Hum
%
Delta-T
°C
Wind Press
QNH
hPa
Press
MSL
hPa
Rain
since 9 am
mm
Dir
 
Spd
km/h
Gust
km/h
Spd
kts
Gust
kts
21/11:30pm 20.6 20.9 15.9 74 2.8 SW 9 - 5 - 1014.0 - 0.0
21/11:00pm 20.9 20.5 16.1 74 2.9 SSW 13 - 7 - 1014.0 - 0.0
21/10:30pm 23.0 22.4 14.5 58 5.0 SSW 11 - 6 - 1013.8 - 0.0
21/10:00pm 23.2 22.5 14.2 57 5.3 SSW 11 - 6 - 1013.5 - 0.0
21/09:30pm 23.9 23.9 15.2 58 5.2 SW 9 - 5 - 1012.8 - 0.0
21/09:00pm 25.9 24.7 11.5 40 8.2 SSW 9 - 5 - 1012.1 1012.0 0.0
21/08:30pm 26.9 25.8 12.0 39 8.6 SSE 9 - 5 - 1011.6 - 0.0
21/08:00pm 27.4 26.5 13.8 43 8.1 S 11 - 6 - 1011.1 - 0.0
21/07:30pm 27.4 27.3 15.0 46 7.5 SSW 9 - 5 - 1010.7 - 0.0
21/07:00pm 29.2 28.1 14.3 40 9.0 S 13 - 7 - 1010.4 - 0.0
21/06:30pm 29.0 28.2 15.1 42 8.5 SSE 13 - 7 - 1010.1 - 0.0
21/06:00pm 27.5 27.0 14.8 45 7.7 SSW 11 - 6 - 1010.2 1010.2 0.0
21/05:30pm 29.3 26.5 11.2 32 10.4 SSW 17 - 9 - 1010.4 - 0.0
21/05:00pm 32.5 30.2 8.9 23 13.3 SW 11 - 6 - 1010.2 - 0.0
21/04:30pm 32.2 29.5 8.9 23 13.1 SSW 13 - 7 - 1010.6 - 0.0
21/04:00pm 33.3 31.4 7.4 20 14.3 SSW 7 - 4 - 1010.7 - 0.0
21/03:30pm 32.3 30.4 9.1 24 13.1 SSW 9 - 5 - 1010.9 - 0.0
21/03:00pm 32.1 30.5 8.1 22 13.3 WNW 6 - 3 - 1011.5 1011.4 0.0
21/02:30pm 31.7 29.8 7.7 22 13.2 SSW 7 - 4 - 1011.9 - 0.0
21/02:00pm 31.1 29.2 8.9 25 12.4 S 9 - 5 - 1012.4 - 0.0
21/01:30pm 29.1 27.8 12.4 35 9.8 SW 11 - 6 - 1012.8 - 0.0
21/01:00pm 29.7 28.2 10.6 30 10.9 SSW 9 - 5 - 1013.0 - 0.0
21/12:30pm 29.4 28.8 12.3 34 10.0 SSW 7 - 4 - 1013.3 - 0.0
21/12:00pm 27.0 26.5 12.6 41 8.4 S 7 - 4 - 1013.6 1013.5 0.0
21/11:30am 28.2 27.0 11.7 36 9.5 SSW 9 - 5 - 1013.7 - 0.0
21/11:00am 26.9 26.2 11.5 38 8.8 SW 6 - 3 - 1013.8 - 0.0
21/10:30am 23.9 23.9 11.2 44 7.1 NE 2 - 1 - 1013.8 - 0.0
21/10:00am 22.3 22.2 12.2 52 5.7 N 4 - 2 - 1014.1 - 0.0
21/09:30am 20.4 19.6 11.6 57 4.9 NE 7 - 4 - 1014.7 - 0.0
21/09:00am 19.2 17.4 12.2 64 3.9 NNE 13 - 7 - 1014.7 1014.6 0.0
21/08:30am 17.7 15.8 11.9 69 3.2 NNE 13 - 7 - 1014.9 - 0.0
21/08:00am 16.3 15.2 11.9 75 2.4 NNE 9 - 5 - 1014.7 - 0.0
21/07:30am 14.7 14.0 11.5 81 1.7 NE 6 - 3 - 1015.2 - 0.0
21/07:00am 13.9 13.6 11.3 84 1.4 NE 4 - 2 - 1015.2 - 0.0
21/06:30am 13.7 14.1 11.4 86 1.2 CALM 0 - 0 - 1015.1 - 0.0
21/06:00am 14.1 13.9 11.7 85 1.3 ESE 4 - 2 - 1014.7 1014.6 0.0
21/05:30am 14.2 14.8 12.0 87 1.2 CALM 0 - 0 - 1014.6 - 0.0
21/05:00am 14.3 13.6 12.1 87 1.2 NE 7 - 4 - 1014.1 - 0.0
21/04:30am 14.6 13.9 12.0 84 1.4 NNE 7 - 4 - 1014.2 - 0.0
21/04:00am 14.8 14.3 12.2 84 1.4 NNE 6 - 3 - 1014.5 - 0.0
21/03:30am 14.8 15.1 12.2 84 1.4 E 2 - 1 - 1014.6 - 0.0
21/03:00am 15.5 16.3 12.4 82 1.7 CALM 0 - 0 - 1015.1 1015.0 0.0
21/02:30am 15.7 16.3 12.0 78 2.0 CALM 0 - 0 - 1015.5 - 0.0
21/02:00am 15.8 16.4 11.9 77 2.1 CALM 0 - 0 - 1015.8 - 0.0
21/01:30am 16.0 16.6 12.0 77 2.2 CALM 0 - 0 - 1016.0 - 0.0
21/01:00am 16.2 16.8 12.0 76 2.3 CALM 0 - 0 - 1016.6 - 0.0
21/12:30am 16.5 16.7 11.9 74 2.5 S 2 - 1 - 1016.9 - 0.0
21/12:00am 16.7 17.3 11.9 73 2.6 CALM 0 - 0 - 1017.3 1017.3 0.0
 
Date/Time
EDT
Temp
°C
App
Temp
°C
Dew
Point
Rel
Hum
%
Delta-T
°C
Wind Press
QNH
hPa
Press
MSL
hPa
Rain
since 9 am
mm
Dir
 
Spd
km/h
Gust
km/h
Spd
kts
Gust
kts
20/11:30pm 17.2 16.4 11.7 70 3.0 SSE 7 - 4 - 1017.3 - 0.0
20/11:00pm 17.6 16.9 11.5 67 3.3 SSE 6 - 3 - 1017.6 - 0.0
20/10:30pm 18.1 16.8 11.1 63 3.8 SSE 9 - 5 - 1017.7 - 0.0
20/10:00pm 18.5 17.2 11.3 63 3.9 SSE 9 - 5 - 1017.7 - 0.0
20/09:30pm 18.7 17.7 12.2 66 3.6 S 9 - 5 - 1017.4 - 0.0
20/09:00pm 18.6 17.8 12.9 69 3.2 S 9 - 5 - 1017.1 1017.1 0.0
20/08:30pm 19.0 17.8 12.8 67 3.5 SSW 11 - 6 - 1017.2 - 0.0
20/08:00pm 19.2 17.5 12.6 65 3.7 SSW 13 - 7 - 1017.1 - 0.0
20/07:30pm 19.4 17.7 12.6 64 3.8 SSW 13 - 7 - 1016.9 - 0.0
20/07:00pm 19.9 17.8 12.4 62 4.2 SSW 15 - 8 - 1016.6 - 0.0
20/06:30pm 21.2 18.7 12.3 57 5.0 SSW 17 - 9 - 1016.4 - 0.0
20/06:00pm 21.6 19.1 12.4 55 5.2 SSW 17 - 9 - 1016.2 1016.1 0.0
20/05:30pm 22.8 20.5 11.6 49 6.3 SSW 15 - 8 - 1016.2 - 0.0
20/05:00pm 22.1 19.7 9.9 46 6.6 SSW 13 - 7 - 1016.4 - 0.0
20/04:30pm 22.7 19.7 9.3 42 7.2 S 15 - 8 - 1016.5 - 0.0
20/04:00pm 22.9 19.9 9.4 42 7.3 SSW 15 - 8 - 1016.8 - 0.0
20/03:30pm 23.0 20.6 8.7 40 7.6 SSW 11 - 6 - 1017.1 - 0.0
20/03:00pm 22.4 20.3 8.4 40 7.4 SSW 9 - 5 - 1017.5 1017.5 0.0
20/02:30pm 21.7 19.6 8.4 42 7.0 S 9 - 5 - 1017.9 - 0.0
20/02:00pm 22.1 19.3 8.4 41 7.2 SSW 13 - 7 - 1018.2 - 0.0
20/01:30pm 20.7 18.8 9.0 47 6.2 SSW 9 - 5 - 1018.4 - 0.0
20/01:00pm 20.2 18.2 8.8 48 6.0 SSW 9 - 5 - 1018.7 - 0.0
20/12:30pm 20.8 19.0 9.3 47 6.1 S 9 - 5 - 1018.9 - 0.0
20/12:00pm 18.9 17.5 9.4 54 5.0 SSW 7 - 4 - 1019.0 1019.0 0.0
20/11:30am 18.4 16.4 8.8 53 5.0 SSE 9 - 5 - 1019.2 - 0.0
20/11:00am 19.3 16.8 8.3 49 5.7 SSW 11 - 6 - 1019.4 - 0.0
20/10:30am 18.4 15.8 7.8 50 5.4 S 11 - 6 - 1019.5 - 0.0
20/10:00am 17.3 15.1 7.8 53 4.8 SSE 9 - 5 - 1019.5 - 0.0
20/09:30am 16.7 14.8 7.7 55 4.5 S 7 - 4 - 1019.5 - 0.0
20/09:00am 16.4 14.7 8.3 58 4.1 SSW 7 - 4 - 1019.3 1019.3 0.0
20/08:30am 15.5 13.4 8.4 62 3.6 W 9 - 5 - 1019.1 - 0.0
20/08:00am 14.3 12.2 8.1 66 3.1 W 9 - 5 - 1018.8 - 0.0
20/07:30am 13.4 11.7 7.7 68 2.8 W 6 - 3 - 1018.5 - 0.0
20/07:00am 12.6 11.3 7.5 71 2.5 W 4 - 2 - 1018.4 - 0.0
20/06:30am 12.8 11.5 7.5 70 2.6 W 4 - 2 - 1018.1 - 0.0
20/06:00am 12.9 11.5 7.3 69 2.7 WSW 4 - 2 - 1018.0 1018.0 0.0
20/05:30am 13.3 11.9 7.3 67 2.9 W 4 - 2 - 1017.9 - 0.0
20/05:00am 13.5 11.7 7.1 65 3.1 WSW 6 - 3 - 1017.9 - 0.0
20/04:30am 13.6 11.8 7.0 64 3.2 WSW 6 - 3 - 1017.8 - 0.0
20/04:00am 13.9 12.0 6.9 62 3.4 W 6 - 3 - 1017.8 - 0.0
20/03:30am 14.1 12.1 7.1 62 3.4 WSW 7 - 4 - 1017.9 - 0.0
20/03:00am 14.5 12.5 7.1 61 3.6 W 7 - 4 - 1018.0 1018.0 0.0
20/02:30am 14.6 12.5 6.8 59 3.8 W 7 - 4 - 1018.2 - 0.0
20/02:00am 15.1 12.5 5.9 54 4.4 W 9 - 5 - 1018.4 - 0.0
20/01:30am 15.1 14.7 8.3 64 3.4 CALM 0 - 0 - 1018.7 - 0.0
20/01:00am 15.5 15.0 7.9 60 3.8 CALM 0 - 0 - 1018.9 - 0.0
20/12:30am 15.7 14.0 7.4 57 4.1 E 6 - 3 - 1019.1 - 0.0
20/12:00am 15.8 13.4 7.1 56 4.3 ESE 9 - 5 - 1019.5 1019.5 0.0
 
Date/Time
EDT
Temp
°C
App
Temp
°C
Dew
Point
Rel
Hum
%
Delta-T
°C
Wind Press
QNH
hPa
Press
MSL
hPa
Rain
since 9 am
mm
Dir
 
Spd
km/h
Gust
km/h
Spd
kts
Gust
kts
19/11:30pm 15.9 13.9 7.2 56 4.3 SE 7 - 4 - 1019.6 - 0.0
19/11:00pm 16.4 14.4 8.6 60 4.0 SSE 9 - 5 - 1019.8 - 0.0
19/10:30pm 16.4 14.1 7.6 56 4.4 SSE 9 - 5 - 1019.8 - 0.0
19/10:00pm 16.2 13.8 7.1 55 4.5 SSE 9 - 5 - 1019.7 - 0.0
19/09:30pm 16.2 13.8 7.1 55 4.5 SSE 9 - 5 - 1019.5 - 0.0
19/09:00pm 16.3 13.5 7.0 54 4.6 SSE 11 - 6 - 1019.5 1019.5 0.0
19/08:30pm 16.8 14.0 7.1 52 4.8 SSE 11 - 6 - 1019.5 - 0.0
19/08:00pm 17.1 14.2 6.5 49 5.2 S 11 - 6 - 1019.3 - 0.0
19/07:30pm 17.8 14.5 6.5 47 5.6 S 13 - 7 - 1018.9 - 0.0
19/07:00pm 17.9 14.7 6.9 48 5.5 S 13 - 7 - 1018.4 - 0.0
19/06:30pm 18.9 15.0 7.2 46 5.9 S 17 - 9 - 1018.2 - 0.0
19/06:00pm 19.4 15.6 7.4 45 6.1 SSW 17 - 9 - 1017.8 1017.8 0.0
19/05:30pm 19.1 15.1 6.7 44 6.2 S 17 - 9 - 1017.7 - 0.0
19/05:00pm 19.6 15.7 6.9 43 6.4 S 17 - 9 - 1017.7 - 0.0
19/04:30pm 19.8 15.3 6.1 40 6.8 SSW 19 - 10 - 1017.6 - 0.0
19/04:00pm 19.8 16.4 5.9 40 6.9 S 13 - 7 - 1017.5 - 0.0
19/03:30pm 19.9 16.2 6.3 41 6.8 S 15 - 8 - 1017.4 - 0.0
19/03:00pm 18.8 15.3 5.5 41 6.5 S 13 - 7 - 1017.4 1017.4 0.0
19/02:30pm 19.3 15.9 5.9 41 6.6 SSW 13 - 7 - 1017.6 - 0.0
19/02:00pm 18.9 14.8 6.2 43 6.3 SSW 17 - 9 - 1017.6 - 0.0
19/01:30pm 19.5 15.8 6.2 42 6.6 S 15 - 8 - 1017.5 - 0.0
19/01:00pm 19.8 16.1 6.4 41 6.7 SSW 15 - 8 - 1017.8 - 0.0
19/12:30pm 18.5 15.5 6.1 44 6.1 SSE 11 - 6 - 1017.8 - 0.0
19/12:00pm 17.3 13.8 7.1 51 5.1 S 15 - 8 - 1017.7 1017.7 0.0

Other Formats:

Comma delimited format used in spreadsheet applications
http://www.bom.gov.au/fwo/IDV60801/IDV60801.94868.axf

JavaScript Object Notation format (JSON) in row-major order
http://www.bom.gov.au/fwo/IDV60801/IDV60801.94868.json